Portada
METAR-TAF:

METAR-TAF

Aeroports :

Savannakhet, Laos

latitud: 16-33-24N, longitud: 104-45-34E, altitud: 155 m

Observació

L'informe es va fer fa 1 hora i 45 minuts, a les 13:00 UTC
Vent 2 kt del Oest
Temperatura 26°C
Humitat 74%
Pressió 1008 hPa
Visibilitat: 3000 m
Núvols disperses a una alçada de 1600 ft
Cel ennuvolat a una alçada de 10000 ft
boirina

METAR: VLSK 221300Z 27002KT 3000 BR SCT016 BKN100 26/21 Q1008 NOSIG

Hora: 21:45 (14:45 UTC)

Pronòstic

L'informe es va fer fa 3 hores i 45 minuts, a les 11:00 UTC
Pronòstic vàlid del 22 a les 12 UTC al 23 a les 12 UTC
Vent 4 kt del Sud
Visibilitat: 7000 m
Núvols disperses a una alçada de 2000 ft
Cel ennuvolat a una alçada de 10000 ft
Temporalment
l' 22 a les 14 UTC al 22 a les 20 UTC
Visibilitat: 3000 m
Núvols disperses a una alçada de 2000 ft
Cel ennuvolat a una alçada de 10000 ft
boirina

TAF: VLSK 221100Z 2212/2312 18004KT 7000 SCT020 BKN100 TEMPO 2214/2220 3000 BR SCT020 BKN100

Observacions i pronòstics meteorològics de més de 4000 aeroports (METAR i TAF).

Les estacions disponibles són els punts grocs i vermells al mapa.

Posi el ratolí al punt desitjat per veure el nom de l'estació.

Feu clic per veure les observacions i els pronòstics meteorològics.

Per canviar el mapa: feu clic els botons verds amb una creu de color negre per apropar; al botó verd amb un guió per allunyar la imatge; o en les fletxes verdes per a mapes adjacents.


METAR-TAF: